createdAt,value
2019-04-04T00:01:42.993Z,7.25
2019-04-04T00:04:11.260Z,7.08
2019-04-04T00:06:39.494Z,6.17
2019-04-04T00:09:09.815Z,6.10
2019-04-04T00:11:38.022Z,7.35
2019-04-04T00:14:06.261Z,7.20
2019-04-04T00:16:34.488Z,7.87
2019-04-04T00:19:02.720Z,6.85
2019-04-04T00:21:31.983Z,6.90
2019-04-04T00:24:00.899Z,7.15
2019-04-04T00:26:29.224Z,7.67
2019-04-04T00:28:57.446Z,7.42
2019-04-04T00:31:25.693Z,7.03
2019-04-04T00:33:55.791Z,5.90
2019-04-04T00:36:23.885Z,7.03
2019-04-04T00:38:52.140Z,6.50
2019-04-04T00:41:20.369Z,7.67
2019-04-04T00:43:49.903Z,6.75
2019-04-04T00:46:18.789Z,6.25
2019-04-04T00:48:47.029Z,6.35
2019-04-04T00:51:15.248Z,6.72
2019-04-04T00:53:43.595Z,7.15
2019-04-04T00:56:11.888Z,6.90
2019-04-04T00:58:40.116Z,6.62
2019-04-04T01:01:08.430Z,7.15
2019-04-04T01:03:36.661Z,6.97
2019-04-04T01:06:04.897Z,6.70
2019-04-04T01:08:33.149Z,6.33
2019-04-04T01:11:01.449Z,6.85
2019-04-04T01:13:29.685Z,6.58
2019-04-04T01:15:57.909Z,6.72
2019-04-04T01:18:26.134Z,7.47
2019-04-04T01:20:54.359Z,7.45
2019-04-04T01:23:22.598Z,7.53
2019-04-04T01:25:50.841Z,7.00
2019-04-04T01:28:19.128Z,6.62
2019-04-04T01:30:47.418Z,6.42
2019-04-04T01:33:15.685Z,7.33
2019-04-04T01:35:43.948Z,6.55
2019-04-04T01:38:12.168Z,7.60
2019-04-04T01:40:40.413Z,7.45
2019-04-04T01:43:09.369Z,6.90
2019-04-04T01:45:38.265Z,7.53
2019-04-04T01:48:06.490Z,6.42
2019-04-04T01:50:34.738Z,6.95
2019-04-04T01:53:02.961Z,7.35
2019-04-04T01:55:32.991Z,7.78
2019-04-04T01:58:01.137Z,6.90
2019-04-04T02:00:29.369Z,8.30
2019-04-04T02:02:57.601Z,7.90
2019-04-04T02:05:27.102Z,7.92
2019-04-04T02:07:55.844Z,7.58
2019-04-04T02:10:24.112Z,7.10
2019-04-04T02:12:52.386Z,8.18
2019-04-04T02:15:20.613Z,7.97
2019-04-04T02:17:48.843Z,7.22
2019-04-04T02:20:17.068Z,8.43
2019-04-04T02:22:45.299Z,8.10
2019-04-04T02:25:13.547Z,7.97
2019-04-04T02:27:41.800Z,7.80
2019-04-04T02:30:14.626Z,7.85
2019-04-04T02:32:41.603Z,9.10
2019-04-04T02:35:10.774Z,8.70
2019-04-04T02:37:39.785Z,8.55
2019-04-04T02:40:08.874Z,8.50
2019-04-04T02:42:38.345Z,9.80
2019-04-04T02:45:06.706Z,8.38
2019-04-04T02:47:35.113Z,8.83
2019-04-04T02:50:04.003Z,8.90
2019-04-04T02:52:32.306Z,8.58
2019-04-04T02:55:00.545Z,9.38
2019-04-04T02:57:28.772Z,9.28
2019-04-04T02:59:57.018Z,10.68
2019-04-04T03:02:25.253Z,9.33
2019-04-04T03:04:53.488Z,10.32
2019-04-04T03:07:21.777Z,9.50
2019-04-04T03:09:50.037Z,10.18
2019-04-04T03:12:18.267Z,9.83
2019-04-04T03:14:50.152Z,9.90
2019-04-04T03:17:16.497Z,10.00
2019-04-04T03:19:44.749Z,9.75
2019-04-04T03:22:13.037Z,9.88
2019-04-04T03:24:44.908Z,11.95
2019-04-04T03:27:11.282Z,11.80
2019-04-04T03:29:39.525Z,13.65
2019-04-04T03:32:13.660Z,11.60
2019-04-04T03:34:37.730Z,12.70
2019-04-04T03:37:07.239Z,12.75
2019-04-04T03:39:35.987Z,12.00
2019-04-04T03:42:07.103Z,11.73
2019-04-04T03:44:34.199Z,12.05
2019-04-04T03:47:02.439Z,12.20
2019-04-04T03:49:30.676Z,12.80
2019-04-04T03:51:58.917Z,12.40
2019-04-04T03:54:27.598Z,13.03
2019-04-04T03:56:55.925Z,14.73
2019-04-04T03:59:24.159Z,13.48
2019-04-04T04:01:52.380Z,13.93
2019-04-04T04:04:20.623Z,13.62
2019-04-04T04:06:48.844Z,13.60
2019-04-04T04:09:17.084Z,14.95
2019-04-04T04:11:45.451Z,14.78
2019-04-04T04:14:21.600Z,15.05
2019-04-04T04:16:49.600Z,14.93
2019-04-04T04:19:17.821Z,14.05
2019-04-04T04:21:46.063Z,14.13
2019-04-04T04:24:14.290Z,14.23
2019-04-04T04:26:42.530Z,14.30
2019-04-04T04:29:10.781Z,14.85
2019-04-04T04:31:39.081Z,15.13
2019-04-04T04:34:11.965Z,14.60
2019-04-04T04:36:40.181Z,14.83
2019-04-04T04:39:08.426Z,15.78
2019-04-04T04:41:36.670Z,15.25
2019-04-04T04:44:05.761Z,15.58
2019-04-04T04:46:34.810Z,15.78
2019-04-04T04:49:04.041Z,16.45
2019-04-04T04:51:32.685Z,16.97
2019-04-04T04:54:00.933Z,17.25
2019-04-04T04:56:30.987Z,16.35
2019-04-04T04:58:59.109Z,16.50
2019-04-04T05:01:27.344Z,15.65
2019-04-04T05:03:56.537Z,15.95
2019-04-04T05:06:25.593Z,16.57
2019-04-04T05:08:53.833Z,17.65
2019-04-04T05:11:22.070Z,18.98
2019-04-04T05:13:50.335Z,18.15
2019-04-04T05:16:18.609Z,19.12
2019-04-04T05:18:48.177Z,17.62
2019-04-04T05:21:24.878Z,20.50
2019-04-04T05:23:46.967Z,19.05
2019-04-04T05:26:15.983Z,20.25
2019-04-04T05:28:44.346Z,18.57
2019-04-04T05:31:12.582Z,20.08
2019-04-04T05:33:40.811Z,17.42
2019-04-04T05:36:09.105Z,19.25
2019-04-04T05:38:37.353Z,17.00
2019-04-04T05:41:05.572Z,17.95
2019-04-04T05:43:35.281Z,17.17
2019-04-04T05:46:03.770Z,16.32
2019-04-04T05:48:32.001Z,17.15
2019-04-04T05:51:00.230Z,17.37
2019-04-04T05:53:28.470Z,17.35
2019-04-04T05:55:57.280Z,17.62
2019-04-04T05:58:25.506Z,16.97
2019-04-04T06:00:53.940Z,16.70
2019-04-04T06:03:22.244Z,16.05
2019-04-04T06:05:50.528Z,16.90
2019-04-04T06:08:18.759Z,17.05
2019-04-04T06:10:47.996Z,15.55
2019-04-04T06:13:17.113Z,17.25
2019-04-04T06:15:45.353Z,16.62
2019-04-04T06:18:13.595Z,15.78
2019-04-04T06:20:41.812Z,18.57
2019-04-04T06:23:10.037Z,17.90
2019-04-04T06:25:38.277Z,15.95
2019-04-04T06:28:06.511Z,15.90
2019-04-04T06:30:42.976Z,16.48
2019-04-04T06:33:05.035Z,16.75
2019-04-04T06:35:34.141Z,16.52
2019-04-04T06:38:02.377Z,14.90
2019-04-04T06:40:30.947Z,15.40
2019-04-04T06:42:59.220Z,17.12
2019-04-04T06:45:29.706Z,15.25
2019-04-04T06:47:58.143Z,14.38
2019-04-04T06:50:26.519Z,14.95
2019-04-04T06:52:56.519Z,15.40
2019-04-04T06:55:28.467Z,14.85
2019-04-04T06:57:54.735Z,15.05
2019-04-04T07:00:23.016Z,14.73
2019-04-04T07:02:55.260Z,15.55
2019-04-04T07:05:21.238Z,15.63
2019-04-04T07:07:49.461Z,15.08
2019-04-04T07:10:21.024Z,14.07
2019-04-04T07:12:48.941Z,13.55
2019-04-04T07:15:17.405Z,15.10
2019-04-04T07:17:45.636Z,13.62
2019-04-04T07:20:16.672Z,14.35
2019-04-04T07:22:43.868Z,13.53
2019-04-04T07:25:12.100Z,14.78
2019-04-04T07:27:40.332Z,14.05
2019-04-04T07:30:08.568Z,13.22
2019-04-04T07:32:36.841Z,12.05
2019-04-04T07:35:06.411Z,13.00
2019-04-04T07:37:34.647Z,13.40
2019-04-04T07:40:04.409Z,11.95
2019-04-04T07:42:32.928Z,12.30
2019-04-04T07:45:01.188Z,12.30
2019-04-04T07:47:29.457Z,12.63
2019-04-04T07:49:57.747Z,12.18
2019-04-04T07:52:26.061Z,12.28
2019-04-04T07:54:54.305Z,13.25
2019-04-04T07:57:22.553Z,14.05
2019-04-04T08:00:10.199Z,12.45
2019-04-04T08:02:38.441Z,12.43
2019-04-04T08:05:08.554Z,12.88
2019-04-04T08:07:36.773Z,13.35
2019-04-04T08:10:06.138Z,12.37
2019-04-04T08:12:53.801Z,12.85
2019-04-04T08:15:22.028Z,12.98
2019-04-04T08:17:50.272Z,13.10
2019-04-04T08:20:18.500Z,11.88
2019-04-04T08:22:46.763Z,12.18
2019-04-04T08:25:14.989Z,12.18
2019-04-04T08:27:43.221Z,12.80
2019-04-04T08:30:11.449Z,12.15
2019-04-04T08:32:39.702Z,12.68
2019-04-04T08:35:07.928Z,12.43
2019-04-04T08:37:36.159Z,11.03
2019-04-04T08:40:07.502Z,12.40
2019-04-04T08:42:35.796Z,12.47
2019-04-04T08:45:06.068Z,12.05
2019-04-04T08:47:34.309Z,12.37
2019-04-04T08:50:02.551Z,12.03
2019-04-04T08:52:30.824Z,11.20
2019-04-04T08:54:59.135Z,12.33
2019-04-04T08:57:27.423Z,12.00
2019-04-04T08:59:55.661Z,11.18
2019-04-04T09:02:23.892Z,13.03
2019-04-04T09:04:54.892Z,12.03
2019-04-04T09:07:23.145Z,11.55
2019-04-04T09:09:51.485Z,10.85
2019-04-04T09:12:20.061Z,13.00
2019-04-04T09:14:48.314Z,12.53
2019-04-04T09:17:16.612Z,12.33
2019-04-04T09:19:44.920Z,13.50
2019-04-04T09:22:13.164Z,13.75
2019-04-04T09:24:41.408Z,13.65
2019-04-04T09:27:09.636Z,15.58
2019-04-04T09:29:37.864Z,16.23
2019-04-04T09:32:06.112Z,15.88
2019-04-04T09:34:34.349Z,15.20
2019-04-04T09:37:02.579Z,15.72
2019-04-04T09:39:30.821Z,16.30
2019-04-04T09:41:59.076Z,16.23
2019-04-04T09:44:27.323Z,16.17
2019-04-04T09:47:05.264Z,18.12
2019-04-04T09:49:25.543Z,16.27
2019-04-04T09:51:53.778Z,17.57
2019-04-04T09:54:22.025Z,17.62
2019-04-04T09:56:50.252Z,18.17
2019-04-04T09:59:18.492Z,17.50
2019-04-04T10:01:46.717Z,17.35
2019-04-04T10:04:14.958Z,16.77
2019-04-04T10:06:43.636Z,16.77
2019-04-04T10:09:15.930Z,16.50
2019-04-04T10:11:43.932Z,17.05
2019-04-04T10:14:12.204Z,16.02
2019-04-04T10:16:40.435Z,16.60
2019-04-04T10:19:08.677Z,17.07
2019-04-04T10:21:36.904Z,15.83
2019-04-04T10:24:05.177Z,16.80
2019-04-04T10:26:33.416Z,17.00
2019-04-04T10:29:01.644Z,18.45
2019-04-04T10:31:30.023Z,18.37
2019-04-04T10:33:58.322Z,18.27
2019-04-04T10:36:26.604Z,18.65
2019-04-04T10:38:54.834Z,18.00
2019-04-04T10:41:23.093Z,19.62
2019-04-04T10:43:51.344Z,16.87
2019-04-04T10:46:19.568Z,18.60
2019-04-04T10:48:47.801Z,18.65
2019-04-04T10:51:16.053Z,19.67
2019-04-04T10:53:44.366Z,21.15
2019-04-04T10:56:12.588Z,19.75
2019-04-04T10:58:40.833Z,20.57
2019-04-04T11:01:09.064Z,21.48
2019-04-04T11:03:37.304Z,19.15
2019-04-04T11:06:05.539Z,19.48
2019-04-04T11:08:33.789Z,20.02
2019-04-04T11:11:02.050Z,19.92
2019-04-04T11:13:33.727Z,20.08
2019-04-04T11:16:00.334Z,20.50
2019-04-04T11:18:28.578Z,20.55
2019-04-04T11:20:56.808Z,18.80
2019-04-04T11:23:25.045Z,18.45
2019-04-04T11:25:53.354Z,19.62
2019-04-04T11:28:21.575Z,20.27
2019-04-04T11:30:49.814Z,18.30
2019-04-04T11:33:18.044Z,19.05
2019-04-04T11:35:46.280Z,20.57
2019-04-04T11:38:14.509Z,18.27
2019-04-04T11:40:42.773Z,17.67
2019-04-04T11:43:11.000Z,18.80
2019-04-04T11:45:39.316Z,19.15
2019-04-04T11:48:07.556Z,19.45
2019-04-04T11:50:35.805Z,18.80
2019-04-04T11:53:04.041Z,18.23
2019-04-04T11:55:32.279Z,19.75
2019-04-04T11:58:00.517Z,19.20
2019-04-04T12:00:30.467Z,17.10
2019-04-04T12:02:58.729Z,18.25
2019-04-04T12:05:26.961Z,20.25
2019-04-04T12:07:55.207Z,18.45
2019-04-04T12:10:23.440Z,18.45
2019-04-04T12:12:51.681Z,17.00
2019-04-04T12:15:19.926Z,18.75
2019-04-04T12:17:48.177Z,17.85
2019-04-04T12:20:16.406Z,18.20
2019-04-04T12:22:44.666Z,19.15
2019-04-04T12:25:12.917Z,18.67
2019-04-04T12:27:41.160Z,18.25
2019-04-04T12:30:09.666Z,18.32
2019-04-04T12:32:37.893Z,15.90
2019-04-04T12:35:06.130Z,18.82
2019-04-04T12:37:34.369Z,18.27
2019-04-04T12:40:02.625Z,17.52
2019-04-04T12:42:30.605Z,19.75
2019-04-04T12:44:59.741Z,17.92
2019-04-04T12:47:27.978Z,16.85
2019-04-04T12:49:56.237Z,17.82
2019-04-04T12:52:24.485Z,18.37
2019-04-04T12:54:52.724Z,16.97
2019-04-04T12:57:20.956Z,17.95
2019-04-04T12:59:49.300Z,17.85
2019-04-04T13:02:17.552Z,16.73
2019-04-04T13:04:45.801Z,17.15
2019-04-04T13:07:14.034Z,16.95
2019-04-04T13:09:42.274Z,16.27
2019-04-04T13:12:10.505Z,16.60
2019-04-04T13:14:38.742Z,17.42
2019-04-04T13:17:06.982Z,18.48
2019-04-04T13:19:35.217Z,16.60
2019-04-04T13:22:03.526Z,15.88
2019-04-04T13:24:31.756Z,16.37
2019-04-04T13:27:00.212Z,15.98
2019-04-04T13:29:28.470Z,16.87
2019-04-04T13:31:56.708Z,17.20
2019-04-04T13:34:24.938Z,19.07
2019-04-04T13:36:53.208Z,17.30
2019-04-04T13:39:21.508Z,16.90
2019-04-04T13:41:49.757Z,16.70
2019-04-04T13:44:18.030Z,16.30
2019-04-04T13:46:46.260Z,18.62
2019-04-04T13:49:14.513Z,16.80
2019-04-04T13:51:42.748Z,18.17
2019-04-04T13:54:10.984Z,17.62
2019-04-04T13:56:39.217Z,16.65
2019-04-04T13:59:07.466Z,17.40
2019-04-04T14:01:35.690Z,16.00
2019-04-04T14:04:03.922Z,15.35
2019-04-04T14:06:32.148Z,14.58
2019-04-04T14:09:00.390Z,17.02
2019-04-04T14:11:28.627Z,16.93
2019-04-04T14:13:58.792Z,15.72
2019-04-04T14:16:26.899Z,15.58
2019-04-04T14:18:55.118Z,16.67
2019-04-04T14:21:23.720Z,16.00
2019-04-04T14:23:53.008Z,13.00
2019-04-04T14:26:21.726Z,12.68
2019-04-04T14:28:49.955Z,11.73
2019-04-04T14:31:18.223Z,12.93
2019-04-04T14:33:46.621Z,11.45
2019-04-04T14:36:14.899Z,11.25
2019-04-04T14:38:43.180Z,10.50
2019-04-04T14:41:11.981Z,9.70
2019-04-04T14:43:43.010Z,10.72
2019-04-04T14:46:11.252Z,10.53
2019-04-04T14:48:42.244Z,9.95
2019-04-04T14:51:09.441Z,9.60
2019-04-04T14:53:37.668Z,10.25
2019-04-04T14:56:05.908Z,9.83
2019-04-04T14:58:34.122Z,9.55
2019-04-04T15:01:02.356Z,10.40
2019-04-04T15:03:30.592Z,8.70
2019-04-04T15:05:58.812Z,9.05
2019-04-04T15:08:27.054Z,9.15
2019-04-04T15:10:55.322Z,9.13
2019-04-04T15:13:23.542Z,8.28
2019-04-04T15:16:14.041Z,9.73
2019-04-04T15:18:42.274Z,9.73
2019-04-04T15:21:10.488Z,7.97
2019-04-04T15:23:38.734Z,7.97
2019-04-04T15:26:09.660Z,8.15
2019-04-04T15:28:36.942Z,9.15
2019-04-04T15:31:05.232Z,8.68
2019-04-04T15:33:33.461Z,7.58
2019-04-04T15:36:01.689Z,8.15
2019-04-04T15:38:30.114Z,6.92
2019-04-04T15:40:58.378Z,7.87
2019-04-04T15:43:26.621Z,6.87
2019-04-04T15:45:54.904Z,7.55
2019-04-04T15:48:23.145Z,7.33
2019-04-04T15:50:51.410Z,6.65
2019-04-04T15:53:19.620Z,6.70
2019-04-04T15:55:47.853Z,6.05
2019-04-04T15:58:16.080Z,7.60
2019-04-04T16:00:44.772Z,6.78
2019-04-04T16:03:13.008Z,6.95
2019-04-04T16:05:41.241Z,6.55
2019-04-04T16:08:09.505Z,7.65
2019-04-04T16:10:37.746Z,7.72
2019-04-04T16:13:05.956Z,6.17
2019-04-04T16:15:34.221Z,6.83
2019-04-04T16:18:02.510Z,7.37
2019-04-04T16:20:30.860Z,6.90
2019-04-04T16:22:59.109Z,7.60
2019-04-04T16:25:27.316Z,7.33
2019-04-04T16:27:55.569Z,6.80
2019-04-04T16:30:23.847Z,6.60
2019-04-04T16:32:52.086Z,5.92
2019-04-04T16:35:20.331Z,6.17
2019-04-04T16:37:48.552Z,6.78
2019-04-04T16:40:17.765Z,5.90
2019-04-04T16:42:46.015Z,5.47
2019-04-04T16:45:14.237Z,5.62
2019-04-04T16:47:42.479Z,5.05
2019-04-04T16:50:10.709Z,4.65
2019-04-04T16:52:38.931Z,5.45
2019-04-04T16:55:07.169Z,4.05
2019-04-04T16:57:35.384Z,4.28
2019-04-04T17:00:05.152Z,4.08
2019-04-04T17:02:33.400Z,3.62
2019-04-04T17:05:04.798Z,3.87
2019-04-04T17:07:33.033Z,3.95
2019-04-04T17:10:01.270Z,3.02
2019-04-04T17:12:29.509Z,3.70
2019-04-04T17:14:57.721Z,3.12
2019-04-04T17:17:25.948Z,3.00
2019-04-04T17:19:54.169Z,3.25
2019-04-04T17:22:22.416Z,3.25
2019-04-04T17:24:50.633Z,3.52
2019-04-04T17:27:18.885Z,3.83
2019-04-04T17:29:47.499Z,4.25
2019-04-04T17:32:15.931Z,4.00
2019-04-04T17:34:44.337Z,4.20
2019-04-04T17:37:12.834Z,4.33
2019-04-04T17:39:41.600Z,4.45
2019-04-04T17:42:09.895Z,4.37
2019-04-04T17:44:38.102Z,4.90
2019-04-04T17:47:06.634Z,4.55
2019-04-04T17:49:35.243Z,4.55
2019-04-04T17:52:04.114Z,5.15
2019-04-04T17:54:32.469Z,4.10
2019-04-04T17:57:00.932Z,5.25
2019-04-04T17:59:30.420Z,4.70
2019-04-04T18:01:58.758Z,5.40
2019-04-04T18:04:27.039Z,5.35
2019-04-04T18:06:55.303Z,7.45
2019-04-04T18:09:31.593Z,7.22
2019-04-04T18:11:53.545Z,7.15
2019-04-04T18:14:22.034Z,7.22
2019-04-04T18:16:50.363Z,6.45
2019-04-04T18:19:18.994Z,7.45
2019-04-04T18:21:47.707Z,6.80
2019-04-04T18:24:16.597Z,7.78
2019-04-04T18:26:45.383Z,7.62
2019-04-04T18:29:14.377Z,7.50
2019-04-04T18:32:04.362Z,6.45
2019-04-04T18:34:34.528Z,7.87
2019-04-04T18:37:24.805Z,7.12
2019-04-04T18:39:54.692Z,6.03
2019-04-04T18:42:24.186Z,6.95
2019-04-04T18:44:55.020Z,6.95
2019-04-04T18:47:24.639Z,7.12
2019-04-04T18:49:54.395Z,6.80
2019-04-04T18:52:29.106Z,6.83
2019-04-04T18:54:59.512Z,7.22
2019-04-04T18:57:29.169Z,6.42
2019-04-04T18:59:59.067Z,5.90
2019-04-04T19:02:31.124Z,6.20
2019-04-04T19:05:01.123Z,5.90
2019-04-04T19:07:39.145Z,5.47
2019-04-04T19:10:02.483Z,5.85
2019-04-04T19:12:32.274Z,6.67
2019-04-04T19:15:02.319Z,7.05
2019-04-04T19:17:31.980Z,7.03
2019-04-04T19:20:02.008Z,6.70
2019-04-04T19:25:21.358Z,6.42
2019-04-04T19:27:51.242Z,7.50
2019-04-04T19:30:21.081Z,6.92
2019-04-04T19:32:52.356Z,6.58
2019-04-04T19:35:22.005Z,7.50
2019-04-04T19:37:59.855Z,6.70
2019-04-04T19:40:22.997Z,7.03
2019-04-04T19:42:53.060Z,6.65
2019-04-04T19:45:22.844Z,6.08
2019-04-04T19:47:52.691Z,7.35
2019-04-04T19:50:22.287Z,7.25
2019-04-04T19:52:52.335Z,7.60
2019-04-04T19:55:23.875Z,6.87
2019-04-04T19:57:53.317Z,7.00
2019-04-04T20:00:23.082Z,7.20
2019-04-04T20:02:52.754Z,8.40
2019-04-04T20:05:22.738Z,7.92
2019-04-04T20:07:53.705Z,8.03
2019-04-04T20:10:23.537Z,8.38
2019-04-04T20:12:53.530Z,8.08
2019-04-04T20:15:25.561Z,7.58
2019-04-04T20:17:55.599Z,9.05
2019-04-04T20:20:25.181Z,8.60
2019-04-04T20:22:54.910Z,9.18
2019-04-04T20:25:25.033Z,10.15
2019-04-04T20:27:55.279Z,9.55
2019-04-04T20:30:38.419Z,10.18
2019-04-04T20:33:08.394Z,9.25
2019-04-04T20:35:37.334Z,9.03
2019-04-04T20:38:06.122Z,9.58
2019-04-04T20:40:35.217Z,9.45
2019-04-04T20:43:05.541Z,10.15
2019-04-04T20:45:35.501Z,10.50
2019-04-04T20:48:04.087Z,10.10
2019-04-04T20:50:32.498Z,9.98
2019-04-04T20:53:00.738Z,9.45
2019-04-04T20:55:28.982Z,10.28
2019-04-04T20:57:57.206Z,10.32
2019-04-04T21:00:25.524Z,10.35
2019-04-04T21:02:53.747Z,11.60
2019-04-04T21:05:21.993Z,10.60
2019-04-04T21:07:50.221Z,10.98
2019-04-04T21:10:18.458Z,11.73
2019-04-04T21:12:46.701Z,10.93
2019-04-04T21:15:16.569Z,11.70
2019-04-04T21:17:44.798Z,11.22
2019-04-04T21:20:14.269Z,11.15
2019-04-04T21:22:42.544Z,11.60
2019-04-04T21:25:11.042Z,11.40
2019-04-04T21:27:39.371Z,10.88
2019-04-04T21:30:07.676Z,12.68
2019-04-04T21:32:35.898Z,11.03
2019-04-04T21:35:06.008Z,12.53
2019-04-04T21:37:34.221Z,11.93
2019-04-04T21:40:02.460Z,11.60
2019-04-04T21:42:30.714Z,11.15
2019-04-04T21:44:58.966Z,10.82
2019-04-04T21:47:27.236Z,11.35
2019-04-04T21:49:55.544Z,12.10
2019-04-04T21:52:25.430Z,11.43
2019-04-04T21:54:53.751Z,11.35
2019-04-04T21:57:21.965Z,11.80
2019-04-04T21:59:51.861Z,11.78
2019-04-04T22:02:24.521Z,11.18
2019-04-04T22:05:03.740Z,12.35
2019-04-04T22:07:32.008Z,11.55
2019-04-04T22:10:00.271Z,13.00
2019-04-04T22:12:28.567Z,12.28
2019-04-04T22:14:56.780Z,12.33
2019-04-04T22:17:25.038Z,11.78
2019-04-04T22:19:53.270Z,12.15
2019-04-04T22:22:21.513Z,13.00
2019-04-04T22:24:49.995Z,12.53
2019-04-04T22:27:18.236Z,13.32
2019-04-04T22:29:46.484Z,11.60
2019-04-04T22:32:14.879Z,12.73
2019-04-04T22:34:43.178Z,12.82
2019-04-04T22:37:11.511Z,12.98
2019-04-04T22:39:39.786Z,11.97
2019-04-04T22:42:08.033Z,13.15
2019-04-04T22:44:36.262Z,12.58
2019-04-04T22:47:04.569Z,12.82
2019-04-04T22:49:32.792Z,12.90
2019-04-04T22:52:01.032Z,12.95
2019-04-04T22:54:45.353Z,13.50
2019-04-04T22:59:41.239Z,11.88
2019-04-04T23:02:09.482Z,11.90
2019-04-04T23:04:37.717Z,12.33
2019-04-04T23:07:05.992Z,11.63
2019-04-04T23:09:34.209Z,13.28
2019-04-04T23:12:02.455Z,12.18
2019-04-04T23:14:30.679Z,13.62
2019-04-04T23:16:58.961Z,11.48
2019-04-04T23:19:27.191Z,12.20
2019-04-04T23:21:55.418Z,11.70
2019-04-04T23:24:23.664Z,11.15
2019-04-04T23:26:51.903Z,10.88
2019-04-04T23:29:20.208Z,12.55
2019-04-04T23:31:48.459Z,11.80
2019-04-04T23:34:16.697Z,11.48
2019-04-04T23:36:44.939Z,11.85
2019-04-04T23:39:13.168Z,11.75
2019-04-04T23:41:41.400Z,11.10
2019-04-04T23:44:09.641Z,11.60
2019-04-04T23:46:37.869Z,12.15
2019-04-04T23:49:06.088Z,11.90
2019-04-04T23:51:34.347Z,11.08
2019-04-04T23:54:02.574Z,9.73
2019-04-04T23:56:30.818Z,11.43
2019-04-04T23:58:59.045Z,10.78
